Terminal Aerodrome Forecast
Issued by NWS

Home | Current Version | Previous Version | Text Only | Print | Product List | Glossary On
Versions: 1 2 3 4 5 6 7 8 9 10 11 12 13
000
FTUS43 KGRB 221134
TAFMTW
TAF
KMTW 221134Z 2212/2312 18011KT P6SM OVC045 WS020/21045KT
      TEMPO 2212/2215 -SHRA BKN025
     FM221500 21011G17KT P6SM -SHRA OVC025 WS020/21045KT
      TEMPO 2215/2218 -SHRA BKN018
     FM221800 29008KT P6SM -SHRA OVC022
     FM222200 29004KT P6SM OVC035
     FM230100 27003KT P6SM SCT250=

USA.gov is the U.S. government's official web portal to all federal, state and local government web resources and services.